Terminal Aerodrome Forecast
Issued by NWS

Home | Current Version | Previous Version | Text Only | Print | Product List | Glossary On
Versions: 1 2 3 4 5 6 7 8 9 10 11 12 13 14 15 16 17 18 19 20 21 22 23 24 25 26 27
000
FTUS43 KDVN 250500 RRA
TAFBRL
TAF
KBRL 250543Z 2506/2606 20004KT P6SM -RA BKN060 OVC120
     FM250900 11005KT P6SM -RA BKN035 OVC060
     FM251300 07008KT 5SM -RA BR BKN020 OVC035
     FM251600 04011G19KT 3SM -RASN BR OVC012
     FM251900 02013G21KT P6SM BKN020
     FM252300 02011KT P6SM SCT030 SCT250=

USA.gov is the U.S. government's official web portal to all federal, state and local government web resources and services.